Time;durP1;ratioP1;P1;durP2;ratioP2;P2;SDS_P1;SDS_P2;PMS_P1;PMS_P2;Temp;Humidity;BMP_temperature;BMP_pressure;BME280_temperature;BME280_humidity;BME280_pressure;Samples;Min_cycle;Max_cycle;Signal;HPM_P1;HPM_P2
2022/04/17 00:00:00;;;;;;;4.43;4.00;;;12.30;50.90;;;;;;5012063;28;20823;-72
2022/04/17 00:02:26;;;;;;;5.77;4.23;;;12.40;50.90;;;;;;5010027;28;20212;-73
2022/04/17 00:04:55;;;;;;;4.80;3.67;;;12.30;50.90;;;;;;5007892;28;21110;-73
2022/04/17 00:07:20;;;;;;;4.40;4.00;;;12.30;51.10;;;;;;5005449;28;20501;-73
2022/04/17 00:09:46;;;;;;;4.53;4.10;;;12.30;51.50;;;;;;5010253;28;20950;-73
2022/04/17 00:12:11;;;;;;;4.40;4.00;;;12.30;51.30;;;;;;5005255;28;20196;-73
2022/04/17 00:14:37;;;;;;;4.30;3.90;;;12.20;51.40;;;;;;5006480;28;20263;-73
2022/04/17 00:17:03;;;;;;;4.33;3.93;;;12.10;52.10;;;;;;5008648;28;20350;-73
2022/04/17 00:19:29;;;;;;;4.93;4.10;;;12.00;52.30;;;;;;5010007;28;20215;-73
2022/04/17 00:21:55;;;;;;;5.13;4.00;;;12.00;52.10;;;;;;5011302;28;20534;-73
2022/04/17 00:24:21;;;;;;;4.90;3.90;;;11.90;52.40;;;;;;5007768;28;20439;-73
2022/04/17 00:26:46;;;;;;;4.90;4.37;;;11.90;52.40;;;;;;5007287;28;20442;-73
2022/04/17 00:29:12;;;;;;;6.07;4.10;;;12.00;52.40;;;;;;5009718;28;20208;-73
2022/04/17 00:31:38;;;;;;;4.83;4.40;;;11.90;52.30;;;;;;5009616;28;20209;-73
2022/04/17 00:34:04;;;;;;;5.87;5.40;;;11.90;52.50;;;;;;5011708;28;20976;-73
2022/04/17 00:36:30;;;;;;;4.20;3.80;;;11.80;52.40;;;;;;5013091;28;20206;-73
2022/04/17 00:38:55;;;;;;;5.60;4.63;;;11.80;52.40;;;;;;5013683;28;20221;-72
2022/04/17 00:41:21;;;;;;;4.60;4.17;;;11.80;52.50;;;;;;5011509;28;20471;-73
2022/04/17 00:43:48;;;;;;;5.60;4.50;;;11.60;52.70;;;;;;5010881;28;20189;-73
2022/04/17 00:46:15;;;;;;;6.17;4.70;;;11.60;52.90;;;;;;5010494;28;20181;-73
2022/04/17 00:48:40;;;;;;;7.67;4.70;;;11.50;53.00;;;;;;5015552;28;20434;-73
2022/04/17 00:51:07;;;;;;;4.87;4.37;;;11.60;53.30;;;;;;5010515;28;21000;-73
2022/04/17 00:53:35;;;;;;;4.90;4.20;;;11.60;53.10;;;;;;5011438;28;20272;-73
2022/04/17 00:56:02;;;;;;;4.20;3.80;;;11.50;53.10;;;;;;5012061;28;20482;-72
2022/04/17 00:58:29;;;;;;;5.40;4.47;;;11.60;53.30;;;;;;5012552;28;20461;-73
2022/04/17 01:00:55;;;;;;;8.70;5.53;;;11.60;53.40;;;;;;5008525;28;20962;-73
2022/04/17 01:03:21;;;;;;;5.23;4.50;;;11.60;53.40;;;;;;5013543;28;20535;-73
2022/04/17 01:05:47;;;;;;;5.13;4.60;;;11.40;53.50;;;;;;5007275;28;20323;-73
2022/04/17 01:08:14;;;;;;;4.57;4.17;;;11.30;53.80;;;;;;5011896;28;20435;-73
2022/04/17 01:10:40;;;;;;;5.17;4.60;;;11.30;54.20;;;;;;5011804;28;20449;-73
2022/04/17 01:13:09;;;;;;;5.33;4.83;;;11.30;54.20;;;;;;5012701;28;20447;-73
2022/04/17 01:15:36;;;;;;;4.90;4.50;;;11.20;54.40;;;;;;5013511;28;20447;-73
2022/04/17 01:18:03;;;;;;;6.80;4.77;;;11.20;54.50;;;;;;5007555;28;20423;-72
2022/04/17 01:20:28;;;;;;;4.90;4.43;;;11.00;54.70;;;;;;5010292;28;20514;-74
2022/04/17 01:26:56;;;;;;;5.10;4.60;;;10.90;54.80;;;;;;5008680;28;20491;-72
2022/04/17 01:28:25;;;;;;;6.47;4.50;;;11.00;54.70;;;;;;5007146;28;20482;-73
2022/04/17 01:30:54;;;;;;;5.77;4.97;;;11.10;54.50;;;;;;5008276;28;20883;-72
2022/04/17 01:33:21;;;;;;;5.67;4.60;;;11.20;54.60;;;;;;5010952;28;20439;-73
2022/04/17 01:35:47;;;;;;;4.73;4.33;;;11.10;54.80;;;;;;5007499;28;20530;-73
2022/04/17 01:38:12;;;;;;;5.13;4.10;;;11.10;54.90;;;;;;5007859;28;20447;-73
2022/04/17 01:40:38;;;;;;;5.10;4.60;;;11.10;54.80;;;;;;5008225;28;20467;-74
2022/04/17 01:43:10;;;;;;;6.10;4.67;;;11.10;54.80;;;;;;5007764;28;20189;-72
2022/04/17 01:45:37;;;;;;;5.37;4.53;;;11.20;54.80;;;;;;5006943;28;20189;-73
2022/04/17 01:48:03;;;;;;;5.00;4.60;;;11.10;54.90;;;;;;5012539;28;20469;-72
2022/04/17 01:50:30;;;;;;;5.20;4.43;;;11.00;55.00;;;;;;5010431;28;20518;-73
2022/04/17 01:52:59;;;;;;;5.73;4.67;;;10.90;55.00;;;;;;5012338;28;21286;-73
2022/04/17 01:55:25;;;;;;;5.60;5.00;;;11.00;55.00;;;;;;5007944;28;20443;-73
2022/04/17 01:57:51;;;;;;;4.43;4.03;;;11.00;54.60;;;;;;5008307;28;20954;-73
2022/04/17 02:00:17;;;;;;;5.63;4.13;;;10.80;54.50;;;;;;5006441;28;20500;-73
2022/04/17 02:02:43;;;;;;;5.23;4.17;;;10.80;55.00;;;;;;5005984;28;20208;-73
2022/04/17 02:05:09;;;;;;;4.73;4.33;;;10.90;54.40;;;;;;5013048;28;20492;-73
2022/04/17 02:07:36;;;;;;;5.80;4.70;;;10.90;54.50;;;;;;5013946;28;20230;-73
2022/04/17 02:10:04;;;;;;;5.20;4.70;;;11.00;54.30;;;;;;5009440;28;20452;-73
2022/04/17 02:12:29;;;;;;;4.50;4.10;;;10.90;54.40;;;;;;5013987;28;20476;-72
2022/04/17 02:14:55;;;;;;;5.40;4.13;;;10.90;54.40;;;;;;5013291;28;20546;-73
2022/04/17 02:17:20;;;;;;;5.43;4.73;;;10.90;54.60;;;;;;5010228;28;20188;-73
2022/04/17 02:19:46;;;;;;;5.00;4.20;;;10.90;54.70;;;;;;5009394;28;21112;-74
2022/04/17 02:22:12;;;;;;;4.87;4.40;;;10.90;55.00;;;;;;5013096;28;20196;-74
2022/04/17 02:24:37;;;;;;;5.37;4.87;;;10.90;55.00;;;;;;5010913;28;20180;-73
2022/04/17 02:27:03;;;;;;;6.17;4.93;;;10.80;55.10;;;;;;5006899;28;20184;-74
2022/04/17 02:29:29;;;;;;;6.73;5.03;;;10.70;55.50;;;;;;5010377;28;20310;-75
2022/04/17 02:31:54;;;;;;;6.47;4.50;;;10.70;55.50;;;;;;5008444;28;20502;-73
2022/04/17 02:34:20;;;;;;;5.77;5.07;;;10.70;55.40;;;;;;5008709;28;20181;-74
2022/04/17 02:36:46;;;;;;;8.03;5.00;;;10.70;55.60;;;;;;5011816;28;20185;-72
2022/04/17 02:39:11;;;;;;;8.10;5.33;;;10.70;55.70;;;;;;5006296;28;20192;-73
2022/04/17 02:41:37;;;;;;;6.00;4.83;;;10.70;56.00;;;;;;5009491;28;20216;-74
2022/04/17 02:44:03;;;;;;;5.40;4.90;;;10.40;56.50;;;;;;5008637;28;20267;-73
2022/04/17 02:49:12;;;;;;;5.60;5.10;;;10.50;56.70;;;;;;5007029;28;20446;-74
2022/04/17 02:51:38;;;;;;;5.63;5.07;;;10.50;56.80;;;;;;5011960;28;20450;-72
2022/04/17 02:54:04;;;;;;;4.93;4.50;;;10.30;56.80;;;;;;5007602;28;20247;-73
2022/04/17 02:56:29;;;;;;;5.47;4.97;;;10.20;57.40;;;;;;5012363;28;20266;-74
2022/04/17 02:58:55;;;;;;;5.53;5.03;;;10.30;57.40;;;;;;5007844;28;20177;-73
2022/04/17 03:06:51;;;;;;;6.53;5.00;;;10.20;57.90;;;;;;5009401;28;21379;-73
2022/04/17 03:09:18;;;;;;;6.00;5.50;;;10.10;58.20;;;;;;5007292;28;20435;-73
2022/04/17 03:11:43;;;;;;;5.47;4.97;;;10.10;58.30;;;;;;5008912;28;20648;-72
2022/04/17 03:14:09;;;;;;;6.40;5.07;;;10.10;58.10;;;;;;5006147;28;20462;-72
2022/04/17 03:16:35;;;;;;;6.20;4.30;;;10.00;58.40;;;;;;5006717;28;20201;-72
2022/04/17 03:19:01;;;;;;;5.33;4.83;;;9.90;59.40;;;;;;5008458;28;20791;-73
2022/04/17 03:21:27;;;;;;;5.93;5.33;;;9.90;59.50;;;;;;5010531;28;20486;-73
2022/04/17 03:23:53;;;;;;;5.07;4.47;;;9.90;59.40;;;;;;5011115;28;20185;-73
2022/04/17 03:26:18;;;;;;;6.97;4.67;;;9.70;59.70;;;;;;5008207;28;20478;-72
2022/04/17 03:28:44;;;;;;;7.00;5.00;;;9.70;60.10;;;;;;5012472;28;20189;-73
2022/04/17 03:31:09;;;;;;;5.77;5.17;;;9.80;60.30;;;;;;5008063;28;20672;-73
2022/04/17 03:33:35;;;;;;;5.67;5.17;;;9.70;60.40;;;;;;5007746;28;20193;-72
2022/04/17 03:36:00;;;;;;;6.50;5.53;;;9.60;60.70;;;;;;5008635;28;20671;-72
2022/04/17 03:38:26;;;;;;;5.20;4.80;;;9.60;61.00;;;;;;5010690;28;20195;-72
2022/04/17 03:40:52;;;;;;;7.17;5.13;;;9.70;60.50;;;;;;5006607;28;20620;-72
2022/04/17 03:43:17;;;;;;;6.27;5.23;;;9.70;60.20;;;;;;5009442;28;20192;-73
2022/04/17 03:45:47;;;;;;;6.43;5.70;;;9.50;61.00;;;;;;5008798;28;20259;-72
2022/04/17 03:48:17;;;;;;;6.73;4.90;;;9.50;61.10;;;;;;5008555;28;20181;-73
2022/04/17 03:50:43;;;;;;;5.40;4.90;;;9.60;61.30;;;;;;5007950;28;20435;-73
2022/04/17 03:53:09;;;;;;;5.77;5.17;;;9.50;61.70;;;;;;5010019;28;20440;-73
2022/04/17 03:55:35;;;;;;;5.53;5.03;;;9.40;61.60;;;;;;5012749;28;20435;-73
2022/04/17 03:58:02;;;;;;;8.93;5.87;;;9.60;62.00;;;;;;5014467;28;20446;-72
2022/04/17 04:00:31;;;;;;;8.43;5.80;;;9.60;62.20;;;;;;5011129;28;20470;-73
2022/04/17 04:02:56;;;;;;;10.03;6.13;;;9.50;62.30;;;;;;5011449;28;20463;-73
2022/04/17 04:05:22;;;;;;;6.23;5.50;;;9.40;62.40;;;;;;5010560;28;20812;-73
2022/04/17 04:07:48;;;;;;;6.20;5.40;;;9.50;62.50;;;;;;5015360;28;20188;-72
2022/04/17 04:10:14;;;;;;;5.50;4.77;;;9.30;62.30;;;;;;5011110;28;20198;-73
2022/04/17 04:12:40;;;;;;;5.40;4.90;;;9.40;63.10;;;;;;5009974;28;20481;-72
2022/04/17 04:15:07;;;;;;;6.70;4.80;;;9.30;63.10;;;;;;5013106;28;20917;-72
2022/04/17 04:17:33;;;;;;;7.83;5.67;;;9.20;63.80;;;;;;5012507;28;20202;-72
2022/04/17 04:19:59;;;;;;;5.57;5.07;;;9.30;63.80;;;;;;5009991;28;20467;-73
2022/04/17 04:22:25;;;;;;;6.20;5.43;;;9.20;63.50;;;;;;5013368;28;20459;-72
2022/04/17 04:24:51;;;;;;;5.63;5.10;;;9.10;64.30;;;;;;5015143;28;20447;-72
2022/04/17 04:30:01;;;;;;;7.47;5.97;;;9.00;65.30;;;;;;5007448;28;20208;-72
2022/04/17 04:32:27;;;;;;;5.37;4.80;;;9.00;65.10;;;;;;5012365;28;20879;-72
2022/04/17 04:34:57;;;;;;;5.50;5.07;;;8.80;65.40;;;;;;5012592;28;20279;-73
2022/04/17 04:37:23;;;;;;;7.03;5.60;;;8.50;66.10;;;;;;5009726;28;20284;-73
2022/04/17 04:39:48;;;;;;;7.90;6.13;;;8.60;66.60;;;;;;5009105;28;20523;-74
2022/04/17 04:42:14;;;;;;;7.90;5.83;;;8.70;66.20;;;;;;5010458;28;20204;-73
2022/04/17 04:44:39;;;;;;;6.50;5.83;;;8.70;66.90;;;;;;5008383;28;20699;-73
2022/04/17 04:47:05;;;;;;;5.93;5.40;;;8.70;66.20;;;;;;5011389;28;20195;-73
2022/04/17 04:49:31;;;;;;;8.57;5.50;;;8.60;66.30;;;;;;5011106;28;20678;-72
2022/04/17 04:52:01;;;;;;;6.30;5.20;;;8.60;66.80;;;;;;5013398;28;20232;-72
2022/04/17 04:54:31;;;;;;;7.17;5.90;;;8.70;66.60;;;;;;5015795;28;20611;-72
2022/04/17 04:56:57;;;;;;;7.00;5.40;;;8.80;66.10;;;;;;5008551;28;20498;-74
2022/04/17 04:59:22;;;;;;;7.03;6.17;;;8.90;65.60;;;;;;5012732;28;20431;-74
2022/04/17 05:01:49;;;;;;;5.47;4.97;;;9.00;65.30;;;;;;5012554;28;21024;-72
2022/04/17 05:04:17;;;;;;;5.50;4.87;;;9.00;65.40;;;;;;5012040;28;20188;-73
2022/04/17 05:06:43;;;;;;;5.53;5.03;;;8.90;66.10;;;;;;5009331;28;20440;-73
2022/04/17 05:09:09;;;;;;;5.73;4.97;;;9.00;65.70;;;;;;5008648;28;20447;-73
2022/04/17 05:11:34;;;;;;;6.60;5.90;;;9.00;64.90;;;;;;5011300;28;20513;-72
2022/04/17 05:14:00;;;;;;;6.77;5.20;;;9.00;65.40;;;;;;5010922;28;20263;-72
2022/04/17 05:16:25;;;;;;;7.47;5.30;;;9.10;65.10;;;;;;5012358;28;20908;-72
2022/04/17 05:19:18;;;;;;;5.80;5.20;;;9.10;64.90;;;;;;5009649;28;20242;-73
2022/04/17 05:21:37;;;;;;;6.00;5.30;;;9.00;64.90;;;;;;5011147;28;20347;-72
2022/04/17 05:24:02;;;;;;;6.73;5.47;;;8.90;66.00;;;;;;5008318;28;20518;-71
2022/04/17 05:26:28;;;;;;;10.40;5.57;;;8.80;65.10;;;;;;5010342;28;20195;-72
2022/04/17 05:28:56;;;;;;;5.70;5.10;;;8.60;65.80;;;;;;5015094;28;20704;-72
2022/04/17 05:31:22;;;;;;;5.87;5.23;;;8.60;66.40;;;;;;5008174;28;20796;-73
2022/04/17 05:33:47;;;;;;;6.40;5.50;;;8.60;67.40;;;;;;5004456;28;20443;-73
2022/04/17 05:36:13;;;;;;;7.43;5.13;;;8.80;66.50;;;;;;5009718;28;20772;-74
2022/04/17 05:38:39;;;;;;;7.13;5.07;;;8.90;65.70;;;;;;5009757;28;20250;-73
2022/04/17 05:41:05;;;;;;;5.70;5.07;;;9.00;65.40;;;;;;5010294;28;20578;-74
2022/04/17 05:43:30;;;;;;;5.80;5.20;;;8.90;66.20;;;;;;5009383;28;20195;-74
2022/04/17 05:45:58;;;;;;;5.50;4.90;;;8.90;65.40;;;;;;5010476;28;20184;-72
2022/04/17 05:48:23;;;;;;;6.93;5.60;;;9.00;64.80;;;;;;5003401;28;20263;-73
2022/04/17 05:50:49;;;;;;;9.20;5.53;;;9.10;64.20;;;;;;5009693;28;20534;-73
2022/04/17 05:53:15;;;;;;;6.13;5.53;;;9.10;64.90;;;;;;5007334;28;20599;-73
2022/04/17 05:55:41;;;;;;;6.07;5.47;;;9.20;63.90;;;;;;5010333;28;20193;-73
2022/04/17 05:58:07;;;;;;;6.77;5.90;;;9.10;64.10;;;;;;5010378;28;20446;-73
2022/04/17 06:00:32;;;;;;;9.67;5.17;;;9.20;64.20;;;;;;5005072;28;20475;-75
2022/04/17 06:02:58;;;;;;;5.80;5.20;;;9.20;63.80;;;;;;5003919;28;20201;-75
2022/04/17 06:05:24;;;;;;;9.53;6.03;;;9.30;64.00;;;;;;5000404;28;20196;-74
2022/04/17 06:07:49;;;;;;;8.37;5.53;;;9.30;63.80;;;;;;5005609;28;20595;-73
2022/04/17 06:10:15;;;;;;;6.07;5.47;;;9.00;63.30;;;;;;5004041;28;20270;-74
2022/04/17 06:12:41;;;;;;;5.60;5.00;;;9.20;64.20;;;;;;5011802;28;20208;-74
2022/04/17 06:15:09;;;;;;;6.90;5.60;;;9.30;63.70;;;;;;5012238;28;20498;-74
2022/04/17 06:17:40;;;;;;;6.80;5.20;;;9.30;63.20;;;;;;5010138;28;20439;-73
2022/04/17 06:20:11;;;;;;;5.00;4.50;;;9.40;62.80;;;;;;5007077;28;20500;-75
2022/04/17 06:22:37;;;;;;;5.27;4.77;;;9.40;62.70;;;;;;5001620;28;20467;-72
2022/04/17 06:25:05;;;;;;;7.10;5.40;;;9.40;62.90;;;;;;5005953;28;20531;-74
2022/04/17 06:27:40;;;;;;;5.80;5.20;;;9.20;63.20;;;;;;5003605;28;20463;-72
2022/04/17 06:30:10;;;;;;;8.23;5.13;;;9.20;63.20;;;;;;4999000;28;20450;-74
2022/04/17 06:32:35;;;;;;;5.70;4.83;;;9.30;63.20;;;;;;5004980;28;20510;-73
2022/04/17 06:35:01;;;;;;;5.07;4.27;;;9.30;63.40;;;;;;4999400;28;20581;-73
2022/04/17 06:37:27;;;;;;;6.93;5.13;;;9.40;62.70;;;;;;5001927;28;20323;-74
2022/04/17 06:39:52;;;;;;;6.23;5.10;;;9.50;62.40;;;;;;5000578;28;20703;-74
2022/04/17 06:42:18;;;;;;;5.17;4.67;;;9.50;62.80;;;;;;5001874;28;20212;-73
2022/04/17 06:44:44;;;;;;;7.67;5.10;;;9.60;62.10;;;;;;5002992;28;20188;-73
2022/04/17 06:47:09;;;;;;;5.90;4.73;;;9.60;62.00;;;;;;4999012;28;20545;-73
2022/04/17 06:49:35;;;;;;;8.00;5.07;;;9.70;62.00;;;;;;4999006;28;20659;-73
2022/04/17 06:52:01;;;;;;;5.37;4.87;;;9.70;61.70;;;;;;4997642;28;20291;-74
2022/04/17 06:54:26;;;;;;;4.93;4.43;;;9.60;61.50;;;;;;5002309;28;20185;-73
2022/04/17 06:56:52;;;;;;;5.17;4.40;;;9.80;62.00;;;;;;5002501;28;20462;-73
2022/04/17 06:59:17;;;;;;;5.97;4.90;;;9.90;61.80;;;;;;5003537;28;20668;-73
2022/04/17 07:01:43;;;;;;;5.40;4.83;;;9.90;62.00;;;;;;5005946;28;20245;-75
2022/04/17 07:04:09;;;;;;;5.20;4.50;;;9.90;61.60;;;;;;5000580;28;20195;-73
2022/04/17 07:06:34;;;;;;;5.00;4.50;;;10.00;60.40;;;;;;4997429;28;20204;-75
2022/04/17 07:09:00;;;;;;;5.10;4.60;;;10.00;60.40;;;;;;5000657;28;20185;-74
2022/04/17 07:11:26;;;;;;;7.90;4.40;;;10.10;60.20;;;;;;4997693;28;20211;-74
2022/04/17 07:13:51;;;;;;;4.97;4.13;;;10.10;60.10;;;;;;5001408;28;20200;-73
2022/04/17 07:16:17;;;;;;;5.30;4.60;;;10.20;60.00;;;;;;5000129;28;20192;-73
2022/04/17 07:18:44;;;;;;;5.03;4.40;;;10.20;60.60;;;;;;5004439;28;20192;-73
2022/04/17 07:21:09;;;;;;;5.77;4.80;;;10.20;59.60;;;;;;4995951;28;20210;-73
2022/04/17 07:23:35;;;;;;;4.77;4.27;;;10.30;59.60;;;;;;4996124;28;20474;-73
2022/04/17 07:26:01;;;;;;;4.60;4.20;;;10.40;59.00;;;;;;4999107;28;20443;-74
2022/04/17 07:28:26;;;;;;;5.80;3.90;;;10.40;58.50;;;;;;5007752;28;20271;-74
2022/04/17 07:30:53;;;;;;;4.37;3.97;;;10.40;58.00;;;;;;5003288;28;20193;-74
2022/04/17 07:33:18;;;;;;;5.63;4.00;;;10.60;57.70;;;;;;5000034;28;20188;-73
2022/04/17 07:35:44;;;;;;;4.63;4.23;;;10.60;56.80;;;;;;5000021;28;20440;-73
2022/04/17 07:38:10;;;;;;;4.30;3.90;;;10.60;56.60;;;;;;4999600;28;20197;-72
2022/04/17 07:40:36;;;;;;;4.60;4.20;;;10.70;56.40;;;;;;5001245;28;20208;-74
2022/04/17 07:43:04;;;;;;;4.80;3.80;;;10.70;56.40;;;;;;5005157;28;20458;-72
2022/04/17 07:45:31;;;;;;;5.07;4.20;;;10.70;56.40;;;;;;5013282;28;20467;-72
2022/04/17 07:47:57;;;;;;;4.33;3.93;;;10.80;56.10;;;;;;5011249;28;20922;-74
2022/04/17 07:50:29;;;;;;;4.70;4.00;;;10.90;55.90;;;;;;5012805;28;20967;-72
2022/04/17 07:52:55;;;;;;;4.57;4.17;;;11.00;56.10;;;;;;5011576;28;20561;-72
2022/04/17 07:55:22;;;;;;;5.10;4.23;;;11.10;55.60;;;;;;4999712;28;20437;-73
2022/04/17 07:57:55;;;;;;;5.97;4.30;;;11.10;55.60;;;;;;5010581;28;20494;-71
2022/04/17 08:00:22;;;;;;;4.40;4.00;;;11.10;55.20;;;;;;5004496;28;20459;-73
2022/04/17 08:02:53;;;;;;;6.00;3.47;;;11.10;54.80;;;;;;5004029;28;20451;-74
2022/04/17 08:05:22;;;;;;;4.00;3.60;;;11.10;55.10;;;;;;5005997;28;20443;-75
2022/04/17 08:07:49;;;;;;;4.73;4.20;;;11.10;55.40;;;;;;5003168;28;20443;-74
2022/04/17 08:10:15;;;;;;;5.03;4.17;;;11.20;55.20;;;;;;5001090;28;20451;-74
2022/04/17 08:12:40;;;;;;;4.47;3.90;;;11.30;55.40;;;;;;5002996;28;21072;-73
2022/04/17 08:15:06;;;;;;;5.00;4.10;;;11.30;54.60;;;;;;4997995;28;20306;-73
2022/04/17 08:17:32;;;;;;;4.30;3.90;;;11.40;54.70;;;;;;5003663;28;20905;-74
2022/04/17 08:19:58;;;;;;;4.47;4.07;;;11.40;54.30;;;;;;5002530;28;20447;-70
2022/04/17 08:22:23;;;;;;;5.57;4.73;;;11.50;54.40;;;;;;4999733;28;20200;-72
2022/04/17 08:24:49;;;;;;;5.10;4.20;;;11.60;54.40;;;;;;5012446;28;20258;-73
2022/04/17 08:27:15;;;;;;;5.47;3.80;;;11.70;54.00;;;;;;5011066;28;20190;-73
2022/04/17 08:29:40;;;;;;;8.23;7.20;;;11.80;54.50;;;;;;5007662;28;20180;-74
2022/04/17 08:32:06;;;;;;;4.63;4.20;;;11.90;54.20;;;;;;5015887;28;20204;-72
2022/04/17 08:34:32;;;;;;;4.53;3.83;;;11.90;53.80;;;;;;5012800;28;20193;-74
2022/04/17 08:36:57;;;;;;;5.30;4.20;;;11.90;53.40;;;;;;5008950;28;20481;-72
2022/04/17 08:39:23;;;;;;;4.97;4.47;;;11.90;52.90;;;;;;5007964;28;20714;-72
2022/04/17 08:41:50;;;;;;;19.30;10.90;;;12.00;53.00;;;;;;5014672;28;20212;-73
2022/04/17 08:44:16;;;;;;;6.20;4.40;;;11.90;53.10;;;;;;5011454;28;20185;-72
2022/04/17 08:46:41;;;;;;;5.87;4.47;;;12.00;53.10;;;;;;5015714;28;21144;-73
2022/04/17 08:49:10;;;;;;;5.07;4.57;;;12.00;52.80;;;;;;5015463;28;20443;-74
2022/04/17 08:51:38;;;;;;;4.03;3.67;;;12.10;52.60;;;;;;5015340;28;20337;-74
2022/04/17 08:54:05;;;;;;;4.83;3.80;;;12.20;52.40;;;;;;5015159;28;21379;-73
2022/04/17 08:56:31;;;;;;;5.33;4.27;;;12.20;51.50;;;;;;5010424;28;20451;-72
2022/04/17 08:58:58;;;;;;;5.13;4.10;;;12.30;51.90;;;;;;5013969;28;20450;-74
2022/04/17 09:01:24;;;;;;;5.63;4.40;;;12.40;51.70;;;;;;5013790;28;20216;-73
2022/04/17 09:03:50;;;;;;;4.60;4.00;;;12.40;50.90;;;;;;5015594;28;20407;-72
2022/04/17 09:06:20;;;;;;;3.53;3.23;;;12.50;50.60;;;;;;5016543;28;20181;-73
2022/04/17 09:09:01;;;;;;;3.97;3.57;;;12.50;50.40;;;;;;5010459;28;20172;-72
2022/04/17 09:11:29;;;;;;;4.63;3.50;;;12.60;50.50;;;;;;5012759;28;20536;-72
2022/04/17 09:13:56;;;;;;;4.10;3.33;;;12.60;48.90;;;;;;5014247;28;20424;-72
2022/04/17 09:16:38;;;;;;;4.20;3.70;;;12.70;49.30;;;;;;5014782;28;20782;-72
2022/04/17 09:19:16;;;;;;;5.53;3.30;;;12.80;49.80;;;;;;5017884;28;20431;-72
2022/04/17 09:21:42;;;;;;;3.90;3.50;;;12.90;50.10;;;;;;5016856;28;20520;-72
2022/04/17 09:24:16;;;;;;;4.40;3.73;;;13.00;50.00;;;;;;5014695;28;20443;-73
2022/04/17 09:26:56;;;;;;;3.80;3.37;;;13.10;49.90;;;;;;5010940;28;20928;-75
2022/04/17 09:29:27;;;;;;;3.90;3.50;;;13.10;49.30;;;;;;5018348;28;20427;-73
2022/04/17 09:32:00;;;;;;;4.20;3.43;;;13.20;49.40;;;;;;5009643;28;21063;-71
2022/04/17 09:34:27;;;;;;;3.70;3.30;;;13.30;49.00;;;;;;5014811;28;20474;-72
2022/04/17 09:36:59;;;;;;;5.17;3.73;;;13.30;48.60;;;;;;5015433;28;20489;-72
2022/04/17 09:39:35;;;;;;;3.63;3.33;;;13.30;48.80;;;;;;5013837;28;20440;-71
2022/04/17 09:42:02;;;;;;;12.73;10.27;;;13.30;49.10;;;;;;5013064;28;20474;-72
2022/04/17 09:44:47;;;;;;;12.57;10.47;;;13.40;49.90;;;;;;5019885;28;20428;-72
2022/04/17 09:47:26;;;;;;;6.13;4.50;;;13.50;49.50;;;;;;5013210;28;20426;-71
2022/04/17 09:49:57;;;;;;;3.93;3.60;;;13.50;49.40;;;;;;5010918;28;20519;-73
2022/04/17 09:52:26;;;;;;;5.67;3.83;;;13.60;49.40;;;;;;5009696;28;20491;-72
2022/04/17 09:54:53;;;;;;;4.70;3.73;;;13.70;49.90;;;;;;5015520;28;20466;-73
2022/04/17 09:57:27;;;;;;;5.73;3.90;;;13.90;50.10;;;;;;5013128;28;21158;-70
2022/04/17 09:59:53;;;;;;;3.40;3.10;;;13.90;49.80;;;;;;5014608;28;20528;-71
2022/04/17 10:02:20;;;;;;;5.47;3.20;;;14.00;48.30;;;;;;5012770;28;20565;-71
2022/04/17 10:04:47;;;;;;;4.40;3.10;;;14.00;47.60;;;;;;5011942;28;20447;-73
2022/04/17 10:07:14;;;;;;;4.23;2.90;;;14.00;47.90;;;;;;5014330;28;21018;-72
2022/04/17 10:09:41;;;;;;;5.47;3.13;;;14.10;47.10;;;;;;5012179;28;20443;-72
2022/04/17 10:12:07;;;;;;;4.23;3.03;;;14.20;47.80;;;;;;5007257;28;20870;-73
2022/04/17 10:14:36;;;;;;;4.30;3.53;;;14.30;48.30;;;;;;5014558;28;20441;-73
2022/04/17 10:17:05;;;;;;;5.33;3.40;;;14.40;47.40;;;;;;5014685;28;20185;-72
2022/04/17 10:19:35;;;;;;;3.83;3.20;;;14.40;46.70;;;;;;5009044;28;20432;-72
2022/04/17 10:22:03;;;;;;;3.80;3.00;;;14.50;46.70;;;;;;5012552;28;20481;-72
2022/04/17 10:24:31;;;;;;;3.40;2.90;;;14.50;46.90;;;;;;5012368;28;20470;-72
2022/04/17 10:26:58;;;;;;;3.50;3.20;;;14.60;46.60;;;;;;5010722;28;20436;-71
2022/04/17 10:29:42;;;;;;;3.93;2.93;;;14.60;46.50;;;;;;5015617;28;20480;-71
2022/04/17 10:32:26;;;;;;;3.30;3.00;;;14.70;46.40;;;;;;5013213;28;20469;-71
2022/04/17 10:35:26;;;;;;;3.07;2.77;;;14.90;45.60;;;;;;5007141;28;21226;-72
2022/04/17 10:38:29;;;;;;;3.00;2.70;;;14.90;45.20;;;;;;5014904;28;20814;-71
2022/04/17 10:40:59;;;;;;;2.93;2.67;;;14.90;45.50;;;;;;5009932;28;20463;-72
2022/04/17 10:43:54;;;;;;;3.30;3.00;;;15.00;45.50;;;;;;5009370;28;20454;-72
2022/04/17 10:46:21;;;;;;;3.20;2.90;;;15.10;47.30;;;;;;5012929;28;20443;-71
2022/04/17 10:49:04;;;;;;;4.30;2.97;;;15.20;47.60;;;;;;5009326;28;20450;-72
2022/04/17 10:51:32;;;;;;;3.50;2.97;;;15.30;47.20;;;;;;5013895;28;20549;-72
2022/04/17 10:54:10;;;;;;;3.50;3.20;;;15.30;47.10;;;;;;5011307;28;20428;-72
2022/04/17 10:56:40;;;;;;;4.43;3.17;;;15.40;47.50;;;;;;5010408;28;20426;-73
2022/04/17 10:59:33;;;;;;;4.50;3.17;;;15.40;47.40;;;;;;5011173;28;20485;-72
2022/04/17 11:02:08;;;;;;;3.43;2.73;;;15.50;46.50;;;;;;5002933;28;21106;-71
2022/04/17 11:04:50;;;;;;;4.23;3.10;;;15.50;46.70;;;;;;5012951;28;20507;-72
2022/04/17 11:07:16;;;;;;;2.80;2.60;;;15.60;46.40;;;;;;5008702;28;21079;-73
2022/04/17 11:09:45;;;;;;;4.37;3.50;;;15.60;46.60;;;;;;5010083;28;20432;-73
2022/04/17 11:12:10;;;;;;;4.37;3.20;;;15.60;46.20;;;;;;5007392;28;20679;-73
2022/04/17 11:14:38;;;;;;;6.00;3.03;;;15.70;45.70;;;;;;5012767;28;20454;-72
2022/04/17 11:17:08;;;;;;;5.00;3.23;;;15.70;45.50;;;;;;5010463;28;20283;-72
2022/04/17 11:19:39;;;;;;;3.43;3.13;;;15.70;45.50;;;;;;5009196;28;20442;-72
2022/04/17 11:22:07;;;;;;;4.57;3.00;;;15.90;46.00;;;;;;5024503;28;20477;-73
2022/04/17 11:24:54;;;;;;;5.13;3.13;;;15.90;45.10;;;;;;5020549;28;20419;-72
2022/04/17 11:27:32;;;;;;;3.20;2.90;;;16.10;45.50;;;;;;5019794;28;20419;-72
2022/04/17 11:30:01;;;;;;;10.20;6.20;;;16.20;45.50;;;;;;5016640;28;20983;-74
2022/04/17 11:32:29;;;;;;;4.40;4.00;;;16.30;45.30;;;;;;5016044;28;21006;-74
2022/04/17 11:34:57;;;;;;;4.57;4.17;;;16.30;44.50;;;;;;5019920;28;20521;-73
2022/04/17 11:37:25;;;;;;;3.53;3.23;;;16.50;44.80;;;;;;5013575;28;20459;-73
2022/04/17 11:39:52;;;;;;;3.70;3.40;;;16.70;44.80;;;;;;4996199;28;1107922;-73
2022/04/17 11:42:18;;;;;;;6.40;3.77;;;16.70;44.80;;;;;;5017436;28;20497;-71
2022/04/17 11:44:46;;;;;;;4.30;3.93;;;16.90;44.80;;;;;;5014022;28;20462;-71
2022/04/17 11:47:18;;;;;;;5.03;3.73;;;17.00;44.50;;;;;;5017968;28;20457;-72
2022/04/17 11:49:45;;;;;;;4.83;3.63;;;17.10;44.20;;;;;;5013525;28;20419;-73
2022/04/17 11:52:14;;;;;;;4.33;3.20;;;17.30;44.60;;;;;;5019020;28;20538;-73
2022/04/17 11:54:40;;;;;;;4.33;3.10;;;17.50;44.90;;;;;;5013203;28;20447;-72
2022/04/17 11:57:07;;;;;;;6.50;4.73;;;17.80;45.30;;;;;;5021849;28;20427;-73
2022/04/17 11:59:48;;;;;;;4.50;4.10;;;17.90;44.20;;;;;;5015625;28;20431;-72
2022/04/17 12:02:16;;;;;;;5.30;3.63;;;18.20;44.30;;;;;;5018258;28;20450;-72
2022/04/17 12:04:50;;;;;;;3.40;3.07;;;18.50;44.10;;;;;;5012770;28;20958;-72
2022/04/17 12:07:20;;;;;;;3.57;3.20;;;19.00;42.80;;;;;;5017497;28;20470;-71
2022/04/17 12:09:46;;;;;;;3.60;3.30;;;19.70;43.00;;;;;;5018853;28;20441;-71
2022/04/17 12:12:14;;;;;;;5.40;4.60;;;20.10;42.10;;;;;;5013161;28;20451;-71
2022/04/17 12:14:40;;;;;;;3.30;3.00;;;20.70;41.90;;;;;;5017887;28;20970;-72
2022/04/17 12:17:06;;;;;;;3.90;3.50;;;20.90;40.50;;;;;;5021849;28;20513;-72
2022/04/17 12:19:32;;;;;;;3.70;2.87;;;21.20;41.10;;;;;;5025208;28;20527;-72
2022/04/17 12:21:58;;;;;;;3.20;2.90;;;21.60;40.40;;;;;;5018894;28;20224;-72
2022/04/17 12:24:25;;;;;;;6.80;5.50;;;21.60;41.00;;;;;;5020615;28;21630;-72
2022/04/17 12:26:52;;;;;;;4.43;3.37;;;22.00;39.70;;;;;;5023697;28;20181;-72
2022/04/17 12:29:18;;;;;;;5.00;3.87;;;22.50;40.00;;;;;;5020662;28;21041;-71
2022/04/17 12:31:44;;;;;;;3.40;3.10;;;22.90;39.00;;;;;;5020380;28;20458;-71
2022/04/17 12:34:10;;;;;;;5.37;4.07;;;23.20;38.30;;;;;;5023099;28;20477;-72
2022/04/17 12:36:42;;;;;;;3.10;2.80;;;23.30;37.70;;;;;;5023705;28;20184;-72
2022/04/17 12:39:08;;;;;;;3.37;2.67;;;23.40;37.80;;;;;;5017752;28;20489;-72
2022/04/17 12:41:57;;;;;;;2.80;2.53;;;23.60;37.30;;;;;;5021823;28;20482;-71
2022/04/17 12:44:35;;;;;;;2.80;2.60;;;23.90;37.70;;;;;;5021273;28;20435;-72
2022/04/17 12:47:11;;;;;;;3.93;3.23;;;24.00;37.10;;;;;;5021251;28;20489;-71
2022/04/17 12:49:37;;;;;;;3.10;2.80;;;23.50;37.20;;;;;;5021898;28;20438;-73
2022/04/17 12:52:03;;;;;;;2.67;2.30;;;23.90;37.20;;;;;;5023680;28;20438;-71
2022/04/17 12:54:34;;;;;;;3.67;3.30;;;24.70;37.20;;;;;;5024177;28;20242;-73
2022/04/17 12:57:08;;;;;;;3.80;3.40;;;25.00;35.50;;;;;;5018916;28;20323;-72
2022/04/17 12:59:40;;;;;;;3.70;3.40;;;25.30;35.90;;;;;;5019711;28;20430;-72
2022/04/17 13:02:13;;;;;;;4.60;3.00;;;25.60;34.30;;;;;;5021469;28;20474;-71
2022/04/17 13:04:45;;;;;;;4.57;4.17;;;25.30;34.00;;;;;;5020835;28;20443;-73
2022/04/17 13:07:13;;;;;;;4.00;3.60;;;25.30;34.60;;;;;;5023476;28;20445;-73